Flugplatz Braunschweig Wolfsburg

Bericht für EDVE

vom 23.09. um 18:50 UTC

Wind 6 kt aus 310°

Sichtweite 10 km oder mehr

schwacher Regen

gering bewölkt in 600 ft

bedeckt in 3100 ft

Temperatur 8.0°C

Taupunkt 7.0°C

Luftfeuchtigkeit 93%

Luftdruck 1012 hPa

EDVE 231850Z 31006KT 9999 -RA FEW006 OVC031 08/07 Q1012

Prognose für EDVE

vom 23.09. um 17:00 UTC

Zwischen 18:00 UTC und 19:00 UTC

Wind 10 kt aus 330°

Sichtweite 10 km oder mehr

aufgebrochene Bewölkung in 800 ft

aufgebrochene Bewölkung in 3000 ft


Zwischen 19:00 und 21:00 UTC übergehend zu

Wind 10 kt aus 330°

Sichtweite 10 km oder mehr

aufgelockert bewölkt in 800 ft

TAF EDVE 231700Z 2318/2321 33010KT 9999 BKN008 BKN030 BECMG 2319/2321 SCT008
Impressum